^^
Station Historical Data
Daily Summary for January 22, 2017 Units:  Both    English   Metric
« Previous Day
Next Day »
Daily Weekly Monthly Yearly Custom
  High: Low: Average:
Temperature: 91.9 °F /  33.3 °C 65.7 °F /  18.7 °C 78.3 °F /  25.7 °C
Dew Point: 56.8 °F /  13.8 °C 38.8 °F /  3.8 °C 50.4 °F /  10.2 °C
Humidity: 69% 16% 41%
Wind Speed: 14.1mph /  22.7km/h - 2.8mph /  4.5km/h
Wind Gust: 14.1mph /  22.7km/h - -
Wind- - ESE
Pressure: 29.76 in /  1007.7 hPa 29.66 in /  1004.3 hPa -
Precipitation: 0.00 in /  0 mm    
Historical Graphs
 
 
Tabular Data for January 22, 2017
Time Temperature Dew Point Pressure Wind Wind Speed Wind Gust Humidity Rainfall Rate (Hourly) solar Conditions
00:01 68.7 °F /  20.4 °C 55.6 °F /  13.1 °C 29.73in /  1006.7hPa Calm     63% 0.00in /  0mm 0.0 W/m2
00:07 68.7 °F /  20.4 °C 55.6 °F /  13.1 °C 29.73in /  1006.7hPa Calm   1.0mph /  1.6km/h 63% 0.00in /  0mm 0.0 W/m2
00:13 68.7 °F /  20.4 °C 55.2 °F /  12.9 °C 29.73in /  1006.7hPa Calm     62% 0.00in /  0mm 0.0 W/m2
00:19 68.7 °F /  20.4 °C 55.6 °F /  13.1 °C 29.73in /  1006.7hPa Calm   1.0mph /  1.6km/h 63% 0.00in /  0mm 0.0 W/m2
00:25 68.7 °F /  20.4 °C 55.2 °F /  12.9 °C 29.73in /  1006.7hPa Calm     62% 0.00in /  0mm 0.0 W/m2
00:31 68.9 °F /  20.5 °C 54.9 °F /  12.7 °C 29.73in /  1006.7hPa Calm     61% 0.00in /  0mm 0.0 W/m2
00:37 69.1 °F /  20.6 °C 55.6 °F /  13.1 °C 29.73in /  1006.7hPa Calm   1.0mph /  1.6km/h 62% 0.00in /  0mm 0.0 W/m2
00:44 69.1 °F /  20.6 °C 56.8 °F /  13.8 °C 29.73in /  1006.7hPa Calm   3.0mph /  4.8km/h 65% 0.00in /  0mm 0.0 W/m2
00:50 69.3 °F /  20.7 °C 56.1 °F /  13.4 °C 29.73in /  1006.7hPa Calm   1.0mph /  1.6km/h 63% 0.00in /  0mm 0.0 W/m2
00:56 69.3 °F /  20.7 °C 56.1 °F /  13.4 °C 29.73in /  1006.7hPa Calm   1.0mph /  1.6km/h 63% 0.00in /  0mm 0.0 W/m2
01:02 69.3 °F /  20.7 °C 56.5 °F /  13.6 °C 29.73in /  1006.7hPa Calm   3.0mph /  4.8km/h 64% 0.00in /  0mm 0.0 W/m2
01:08 69.3 °F /  20.7 °C 56.1 °F /  13.4 °C 29.73in /  1006.7hPa ESE 0.9mph /  1.4km/h 2.0mph /  3.2km/h 63% 0.00in /  0mm 0.0 W/m2
01:14 69.3 °F /  20.7 °C 55.8 °F /  13.2 °C 29.73in /  1006.7hPa Calm   2.0mph /  3.2km/h 62% 0.00in /  0mm 0.0 W/m2
01:20 69.3 °F /  20.7 °C 55.8 °F /  13.2 °C 29.73in /  1006.7hPa Calm   1.0mph /  1.6km/h 62% 0.00in /  0mm 0.0 W/m2
01:26 69.3 °F /  20.7 °C 55.2 °F /  12.9 °C 29.72in /  1006.3hPa Calm   1.0mph /  1.6km/h 61% 0.00in /  0mm 0.0 W/m2
01:33 69.3 °F /  20.7 °C 54.3 °F /  12.4 °C 29.72in /  1006.3hPa Calm   1.0mph /  1.6km/h 59% 0.00in /  0mm 0.0 W/m2
01:39 69.3 °F /  20.7 °C 54.3 °F /  12.4 °C 29.72in /  1006.3hPa Calm   1.0mph /  1.6km/h 59% 0.00in /  0mm 0.0 W/m2
01:45 69.4 °F /  20.8 °C 54.0 °F /  12.2 °C 29.72in /  1006.3hPa Calm   2.0mph /  3.2km/h 58% 0.00in /  0mm 0.0 W/m2
01:51 69.6 °F /  20.9 °C 51.8 °F /  11 °C 29.72in /  1006.3hPa ENE 0.9mph /  1.4km/h 2.0mph /  3.2km/h 53% 0.00in /  0mm 0.0 W/m2
01:57 70.2 °F /  21.2 °C 51.8 °F /  11 °C 29.72in /  1006.3hPa ENE 0.9mph /  1.4km/h 2.0mph /  3.2km/h 52% 0.00in /  0mm 0.0 W/m2
02:03 70.5 °F /  21.4 °C 51.4 °F /  10.8 °C 29.72in /  1006.3hPa ESE 0.9mph /  1.4km/h 5.0mph /  8km/h 51% 0.00in /  0mm 0.0 W/m2
02:09 71.1 °F /  21.7 °C 51.4 °F /  10.8 °C 29.72in /  1006.3hPa Calm   2.0mph /  3.2km/h 50% 0.00in /  0mm 0.0 W/m2
02:15 71.4 °F /  21.9 °C 51.8 °F /  11 °C 29.72in /  1006.3hPa SE 2.0mph /  3.2km/h 2.0mph /  3.2km/h 50% 0.00in /  0mm 0.0 W/m2
02:22 71.8 °F /  22.1 °C 51.6 °F /  10.9 °C 29.72in /  1006.3hPa Calm   7.0mph /  11.3km/h 49% 0.00in /  0mm 0.0 W/m2
02:28 72.0 °F /  22.2 °C 52.3 °F /  11.3 °C 29.72in /  1006.3hPa Calm   1.0mph /  1.6km/h 50% 0.00in /  0mm 0.0 W/m2
02:34 72.0 °F /  22.2 °C 51.8 °F /  11 °C 29.71in /  1006hPa Calm   1.0mph /  1.6km/h 49% 0.00in /  0mm 0.0 W/m2
02:40 72.0 °F /  22.2 °C 51.8 °F /  11 °C 29.71in /  1006hPa SE 0.9mph /  1.4km/h 3.0mph /  4.8km/h 49% 0.00in /  0mm 0.0 W/m2
02:46 72.0 °F /  22.2 °C 51.8 °F /  11 °C 29.71in /  1006hPa Calm   4.0mph /  6.4km/h 49% 0.00in /  0mm 0.0 W/m2
02:52 72.0 °F /  22.2 °C 52.3 °F /  11.3 °C 29.71in /  1006hPa Calm   3.0mph /  4.8km/h 50% 0.00in /  0mm 0.0 W/m2
02:59 71.8 °F /  22.1 °C 52.2 °F /  11.2 °C 29.71in /  1006hPa Calm   1.0mph /  1.6km/h 50% 0.00in /  0mm 0.0 W/m2
03:05 71.8 °F /  22.1 °C 52.2 °F /  11.2 °C 29.70in /  1005.6hPa Calm     50% 0.00in /  0mm 0.0 W/m2
03:11 71.8 °F /  22.1 °C 52.2 °F /  11.2 °C 29.71in /  1006hPa SSW 0.9mph /  1.4km/h 2.0mph /  3.2km/h 50% 0.00in /  0mm 0.0 W/m2
03:17 71.4 °F /  21.9 °C 51.8 °F /  11 °C 29.71in /  1006hPa Calm     50% 0.00in /  0mm 0.0 W/m2
03:23 71.4 °F /  21.9 °C 52.3 °F /  11.3 °C 29.71in /  1006hPa Calm   1.0mph /  1.6km/h 51% 0.00in /  0mm 0.0 W/m2
03:29 71.4 °F /  21.9 °C 51.8 °F /  11 °C 29.70in /  1005.6hPa East 0.9mph /  1.4km/h 3.0mph /  4.8km/h 50% 0.00in /  0mm 0.0 W/m2
03:35 71.4 °F /  21.9 °C 52.3 °F /  11.3 °C 29.71in /  1006hPa Calm   1.0mph /  1.6km/h 51% 0.00in /  0mm 0.0 W/m2
03:41 71.2 °F /  21.8 °C 52.2 °F /  11.2 °C 29.71in /  1006hPa Calm   2.0mph /  3.2km/h 51% 0.00in /  0mm 0.0 W/m2
03:48 71.2 °F /  21.8 °C 52.2 °F /  11.2 °C 29.70in /  1005.6hPa Calm   2.0mph /  3.2km/h 51% 0.00in /  0mm 0.0 W/m2
03:54 71.1 °F /  21.7 °C 52.0 °F /  11.1 °C 29.70in /  1005.6hPa East 0.9mph /  1.4km/h 3.0mph /  4.8km/h 51% 0.00in /  0mm 0.0 W/m2
04:00 71.1 °F /  21.7 °C 52.0 °F /  11.1 °C 29.70in /  1005.6hPa Calm   4.0mph /  6.4km/h 51% 0.00in /  0mm 0.0 W/m2
04:06 70.9 °F /  21.6 °C 52.3 °F /  11.3 °C 29.70in /  1005.6hPa Calm     52% 0.00in /  0mm 0.0 W/m2
04:12 70.5 °F /  21.4 °C 52.0 °F /  11.1 °C 29.70in /  1005.6hPa Calm   1.0mph /  1.6km/h 52% 0.00in /  0mm 0.0 W/m2
04:18 70.3 °F /  21.3 °C 52.3 °F /  11.3 °C 29.70in /  1005.6hPa Calm     53% 0.00in /  0mm 0.0 W/m2
04:24 70.2 °F /  21.2 °C 52.2 °F /  11.2 °C 29.70in /  1005.6hPa Calm   1.0mph /  1.6km/h 53% 0.00in /  0mm 0.0 W/m2
04:30 69.8 °F /  21 °C 52.3 °F /  11.3 °C 29.70in /  1005.6hPa Calm     54% 0.00in /  0mm 0.0 W/m2
04:37 69.4 °F /  20.8 °C 52.2 °F /  11.2 °C 29.70in /  1005.6hPa Calm   1.0mph /  1.6km/h 54% 0.00in /  0mm 0.0 W/m2
04:43 69.4 °F /  20.8 °C 52.5 °F /  11.4 °C 29.70in /  1005.6hPa Calm   1.0mph /  1.6km/h 55% 0.00in /  0mm 0.0 W/m2
04:49 69.3 °F /  20.7 °C 53.4 °F /  11.9 °C 29.70in /  1005.6hPa Calm   1.0mph /  1.6km/h 57% 0.00in /  0mm 0.0 W/m2
04:55 69.1 °F /  20.6 °C 53.6 °F /  12 °C 29.70in /  1005.6hPa Calm   1.0mph /  1.6km/h 58% 0.00in /  0mm 0.0 W/m2
05:01 68.7 °F /  20.4 °C 53.8 °F /  12.1 °C 29.70in /  1005.6hPa Calm   1.0mph /  1.6km/h 59% 0.00in /  0mm 0.0 W/m2
05:07 68.5 °F /  20.3 °C 53.2 °F /  11.8 °C 29.70in /  1005.6hPa Calm     58% 0.00in /  0mm 0.0 W/m2
05:13 68.4 °F /  20.2 °C 53.4 °F /  11.9 °C 29.70in /  1005.6hPa Calm     59% 0.00in /  0mm 0.0 W/m2
05:20 68.4 °F /  20.2 °C 53.4 °F /  11.9 °C 29.70in /  1005.6hPa Calm   1.0mph /  1.6km/h 59% 0.00in /  0mm 0.0 W/m2
05:26 68.2 °F /  20.1 °C 53.2 °F /  11.8 °C 29.70in /  1005.6hPa Calm     59% 0.00in /  0mm 0.0 W/m2
05:32 68.0 °F /  20 °C 53.6 °F /  12 °C 29.70in /  1005.6hPa Calm     60% 0.00in /  0mm 0.0 W/m2
05:38 67.8 °F /  19.9 °C 53.4 °F /  11.9 °C 29.70in /  1005.6hPa Calm     60% 0.00in /  0mm 0.0 W/m2
05:44 67.8 °F /  19.9 °C 54.0 °F /  12.2 °C 29.70in /  1005.6hPa Calm     61% 0.00in /  0mm 0.0 W/m2
05:50 67.6 °F /  19.8 °C 53.8 °F /  12.1 °C 29.70in /  1005.6hPa Calm     61% 0.00in /  0mm 0.0 W/m2
05:56 67.5 °F /  19.7 °C 54.0 °F /  12.2 °C 29.70in /  1005.6hPa Calm     62% 0.00in /  0mm 0.0 W/m2
06:02 67.3 °F /  19.6 °C 54.3 °F /  12.4 °C 29.71in /  1006hPa Calm     63% 0.00in /  0mm 0.0 W/m2
06:09 67.1 °F /  19.5 °C 54.5 °F /  12.5 °C 29.71in /  1006hPa Calm     64% 0.00in /  0mm 0.0 W/m2
06:15 66.9 °F /  19.4 °C 54.3 °F /  12.4 °C 29.71in /  1006hPa Calm     64% 0.00in /  0mm 0.0 W/m2
06:21 66.7 °F /  19.3 °C 54.7 °F /  12.6 °C 29.72in /  1006.3hPa Calm     65% 0.00in /  0mm 0.0 W/m2
06:27 66.6 °F /  19.2 °C 54.5 °F /  12.5 °C 29.71in /  1006hPa Calm     65% 0.00in /  0mm 5.0 W/m2
06:33 66.4 °F /  19.1 °C 54.7 °F /  12.6 °C 29.72in /  1006.3hPa Calm     66% 0.00in /  0mm 9.0 W/m2
06:39 66.0 °F /  18.9 °C 54.3 °F /  12.4 °C 29.72in /  1006.3hPa Calm     66% 0.00in /  0mm 12.0 W/m2
06:45 65.8 °F /  18.8 °C 54.5 °F /  12.5 °C 29.72in /  1006.3hPa Calm     67% 0.00in /  0mm 18.0 W/m2
06:51 65.8 °F /  18.8 °C 54.5 °F /  12.5 °C 29.73in /  1006.7hPa Calm     67% 0.00in /  0mm 23.0 W/m2
06:58 65.7 °F /  18.7 °C 54.0 °F /  12.2 °C 29.73in /  1006.7hPa Calm     66% 0.00in /  0mm 28.0 W/m2
07:04 65.7 °F /  18.7 °C 54.3 °F /  12.4 °C 29.73in /  1006.7hPa Calm     67% 0.00in /  0mm 35.0 W/m2
07:10 65.7 °F /  18.7 °C 54.9 °F /  12.7 °C 29.74in /  1007hPa Calm   1.0mph /  1.6km/h 68% 0.00in /  0mm 39.0 W/m2
07:16 65.8 °F /  18.8 °C 55.0 °F /  12.8 °C 29.74in /  1007hPa Calm   1.0mph /  1.6km/h 68% 0.00in /  0mm 44.0 W/m2
07:22 66.0 °F /  18.9 °C 55.6 °F /  13.1 °C 29.74in /  1007hPa Calm     69% 0.00in /  0mm 51.0 W/m2
07:29 66.4 °F /  19.1 °C 55.9 °F /  13.3 °C 29.75in /  1007.3hPa Calm     69% 0.00in /  0mm 54.0 W/m2
07:34 66.6 °F /  19.2 °C 55.2 °F /  12.9 °C 29.75in /  1007.3hPa Calm   1.0mph /  1.6km/h 67% 0.00in /  0mm 60.0 W/m2
07:40 67.1 °F /  19.5 °C 54.9 °F /  12.7 °C 29.75in /  1007.3hPa Calm   3.0mph /  4.8km/h 65% 0.00in /  0mm 102.0 W/m2
07:46 67.6 °F /  19.8 °C 54.1 °F /  12.3 °C 29.75in /  1007.3hPa Calm   1.0mph /  1.6km/h 62% 0.00in /  0mm 253.0 W/m2
07:52 68.5 °F /  20.3 °C 54.5 °F /  12.5 °C 29.75in /  1007.3hPa ENE 0.9mph /  1.4km/h 4.0mph /  6.4km/h 61% 0.00in /  0mm 279.0 W/m2
07:59 69.6 °F /  20.9 °C 54.7 °F /  12.6 °C 29.76in /  1007.7hPa Calm   6.0mph /  9.7km/h 59% 0.00in /  0mm 295.0 W/m2
08:04 70.9 °F /  21.6 °C 54.3 °F /  12.4 °C 29.76in /  1007.7hPa ENE 0.9mph /  1.4km/h 3.0mph /  4.8km/h 56% 0.00in /  0mm 253.0 W/m2
08:10 71.8 °F /  22.1 °C 54.3 °F /  12.4 °C 29.75in /  1007.3hPa East 0.9mph /  1.4km/h 5.0mph /  8km/h 54% 0.00in /  0mm 350.0 W/m2
08:16 72.9 °F /  22.7 °C 54.7 °F /  12.6 °C 29.75in /  1007.3hPa ESE 2.0mph /  3.2km/h 4.0mph /  6.4km/h 53% 0.00in /  0mm 366.0 W/m2
08:22 73.8 °F /  23.2 °C 54.0 °F /  12.2 °C 29.75in /  1007.3hPa East 0.9mph /  1.4km/h 6.0mph /  9.7km/h 50% 0.00in /  0mm 383.0 W/m2
08:28 74.7 °F /  23.7 °C 55.4 °F /  13 °C 29.75in /  1007.3hPa East 0.9mph /  1.4km/h 3.0mph /  4.8km/h 51% 0.00in /  0mm 415.0 W/m2
08:35 75.2 °F /  24 °C 54.7 °F /  12.6 °C 29.75in /  1007.3hPa Calm   4.0mph /  6.4km/h 49% 0.00in /  0mm 439.0 W/m2
08:41 75.7 °F /  24.3 °C 55.2 °F /  12.9 °C 29.75in /  1007.3hPa ENE 0.9mph /  1.4km/h 7.0mph /  11.3km/h 49% 0.00in /  0mm 455.0 W/m2
08:47 76.3 °F /  24.6 °C 55.2 °F /  12.9 °C 29.75in /  1007.3hPa NE 2.9mph /  4.7km/h 3.0mph /  4.8km/h 48% 0.00in /  0mm 478.0 W/m2
08:53 76.6 °F /  24.8 °C 54.9 °F /  12.7 °C 29.75in /  1007.3hPa NE 6.0mph /  9.7km/h 6.0mph /  9.7km/h 47% 0.00in /  0mm 496.0 W/m2
08:59 77.4 °F /  25.2 °C 55.6 °F /  13.1 °C 29.75in /  1007.3hPa NE 2.9mph /  4.7km/h 6.0mph /  9.7km/h 47% 0.00in /  0mm 520.0 W/m2
09:05 77.7 °F /  25.4 °C 55.2 °F /  12.9 °C 29.75in /  1007.3hPa North 6.9mph /  11.1km/h 12.0mph /  19.3km/h 46% 0.00in /  0mm 552.0 W/m2
09:11 78.1 °F /  25.6 °C 54.3 °F /  12.4 °C 29.75in /  1007.3hPa NNE 4.9mph /  7.9km/h 9.0mph /  14.5km/h 44% 0.00in /  0mm 570.0 W/m2
09:17 78.3 °F /  25.7 °C 54.0 °F /  12.2 °C 29.75in /  1007.3hPa NE 6.0mph /  9.7km/h 8.0mph /  12.9km/h 43% 0.00in /  0mm 592.0 W/m2
09:23 78.4 °F /  25.8 °C 52.7 °F /  11.5 °C 29.75in /  1007.3hPa North 2.9mph /  4.7km/h 8.0mph /  12.9km/h 41% 0.00in /  0mm 621.0 W/m2
09:29 79.0 °F /  26.1 °C 52.0 °F /  11.1 °C 29.75in /  1007.3hPa NNE 4.0mph /  6.4km/h 9.0mph /  14.5km/h 39% 0.00in /  0mm 638.0 W/m2
09:35 79.3 °F /  26.3 °C 51.4 °F /  10.8 °C 29.75in /  1007.3hPa North 2.0mph /  3.2km/h 9.0mph /  14.5km/h 38% 0.00in /  0mm 661.0 W/m2
09:41 79.5 °F /  26.4 °C 51.6 °F /  10.9 °C 29.75in /  1007.3hPa NNW 4.9mph /  7.9km/h 9.0mph /  14.5km/h 38% 0.00in /  0mm 687.0 W/m2
09:47 79.5 °F /  26.4 °C 50.9 °F /  10.5 °C 29.75in /  1007.3hPa NE 2.0mph /  3.2km/h 9.0mph /  14.5km/h 37% 0.00in /  0mm 705.0 W/m2
09:53 80.1 °F /  26.7 °C 52.2 °F /  11.2 °C 29.75in /  1007.3hPa WNW 4.0mph /  6.4km/h 6.0mph /  9.7km/h 38% 0.00in /  0mm 724.0 W/m2
09:59 80.4 °F /  26.9 °C 52.5 °F /  11.4 °C 29.75in /  1007.3hPa East 6.0mph /  9.7km/h 10.0mph /  16.1km/h 38% 0.00in /  0mm 744.0 W/m2
10:05 81.0 °F /  27.2 °C 52.9 °F /  11.6 °C 29.75in /  1007.3hPa NE 2.9mph /  4.7km/h 7.0mph /  11.3km/h 38% 0.00in /  0mm 759.0 W/m2
10:11 81.1 °F /  27.3 °C 52.3 °F /  11.3 °C 29.75in /  1007.3hPa North 6.9mph /  11.1km/h 7.0mph /  11.3km/h 37% 0.00in /  0mm 777.0 W/m2
10:17 81.3 °F /  27.4 °C 52.5 °F /  11.4 °C 29.75in /  1007.3hPa NE 6.0mph /  9.7km/h 9.0mph /  14.5km/h 37% 0.00in /  0mm 796.0 W/m2
10:23 81.7 °F /  27.6 °C 51.4 °F /  10.8 °C 29.75in /  1007.3hPa North 2.9mph /  4.7km/h 9.0mph /  14.5km/h 35% 0.00in /  0mm 814.0 W/m2
10:29 82.0 °F /  27.8 °C 50.9 °F /  10.5 °C 29.75in /  1007.3hPa East 6.0mph /  9.7km/h 8.0mph /  12.9km/h 34% 0.00in /  0mm 831.0 W/m2
10:35 82.4 °F /  28 °C 50.4 °F /  10.2 °C 29.74in /  1007hPa ESE 0.9mph /  1.4km/h 8.0mph /  12.9km/h 33% 0.00in /  0mm 851.0 W/m2
10:41 83.1 °F /  28.4 °C 51.1 °F /  10.6 °C 29.74in /  1007hPa Calm   6.0mph /  9.7km/h 33% 0.00in /  0mm 861.0 W/m2
10:47 83.8 °F /  28.8 °C 50.9 °F /  10.5 °C 29.74in /  1007hPa NNE 2.9mph /  4.7km/h 11.0mph /  17.7km/h 32% 0.00in /  0mm 875.0 W/m2
10:53 84.0 °F /  28.9 °C 50.9 °F /  10.5 °C 29.74in /  1007hPa NNE 4.9mph /  7.9km/h 10.0mph /  16.1km/h 32% 0.00in /  0mm 896.0 W/m2
10:59 84.2 °F /  29 °C 51.1 °F /  10.6 °C 29.74in /  1007hPa ESE 4.0mph /  6.4km/h 10.0mph /  16.1km/h 32% 0.00in /  0mm 919.0 W/m2
11:05 84.4 °F /  29.1 °C 52.2 °F /  11.2 °C 29.74in /  1007hPa ESE 6.0mph /  9.7km/h 13.0mph /  20.9km/h 33% 0.00in /  0mm 960.0 W/m2
11:11 84.4 °F /  29.1 °C 51.3 °F /  10.7 °C 29.74in /  1007hPa NNE 6.0mph /  9.7km/h 8.0mph /  12.9km/h 32% 0.00in /  0mm 949.0 W/m2
11:17 84.9 °F /  29.4 °C 51.8 °F /  11 °C 29.74in /  1007hPa ESE 4.9mph /  7.9km/h 10.0mph /  16.1km/h 32% 0.00in /  0mm 962.0 W/m2
11:23 85.1 °F /  29.5 °C 52.7 °F /  11.5 °C 29.74in /  1007hPa South 4.9mph /  7.9km/h 6.0mph /  9.7km/h 33% 0.00in /  0mm 1011.0 W/m2
11:29 85.3 °F /  29.6 °C 51.3 °F /  10.7 °C 29.74in /  1007hPa Calm   8.0mph /  12.9km/h 31% 0.00in /  0mm 1055.0 W/m2
11:35 85.6 °F /  29.8 °C 52.3 °F /  11.3 °C 29.74in /  1007hPa ENE 6.0mph /  9.7km/h 11.0mph /  17.7km/h 32% 0.00in /  0mm 773.0 W/m2
11:41 85.6 °F /  29.8 °C 52.3 °F /  11.3 °C 29.74in /  1007hPa ESE 4.9mph /  7.9km/h 8.0mph /  12.9km/h 32% 0.00in /  0mm 1104.0 W/m2
11:47 85.5 °F /  29.7 °C 51.4 °F /  10.8 °C 29.73in /  1006.7hPa NNE 4.0mph /  6.4km/h 13.0mph /  20.9km/h 31% 0.00in /  0mm 1139.0 W/m2
11:53 85.5 °F /  29.7 °C 51.4 °F /  10.8 °C 29.74in /  1007hPa East 4.0mph /  6.4km/h 8.0mph /  12.9km/h 31% 0.00in /  0mm 1150.0 W/m2
11:59 85.6 °F /  29.8 °C 51.6 °F /  10.9 °C 29.73in /  1006.7hPa Calm   7.0mph /  11.3km/h 31% 0.00in /  0mm 1171.0 W/m2
12:05 85.8 °F /  29.9 °C 50.7 °F /  10.4 °C 29.74in /  1007hPa ENE 2.9mph /  4.7km/h 10.0mph /  16.1km/h 30% 0.00in /  0mm 288.0 W/m2
12:11 85.8 °F /  29.9 °C 50.7 °F /  10.4 °C 29.73in /  1006.7hPa ESE 2.0mph /  3.2km/h 7.0mph /  11.3km/h 30% 0.00in /  0mm 380.0 W/m2
12:17 85.8 °F /  29.9 °C 51.6 °F /  10.9 °C 29.73in /  1006.7hPa NE 6.0mph /  9.7km/h 13.0mph /  20.9km/h 31% 0.00in /  0mm 1144.0 W/m2
12:23 86.4 °F /  30.2 °C 51.3 °F /  10.7 °C 29.73in /  1006.7hPa East 4.0mph /  6.4km/h 9.0mph /  14.5km/h 30% 0.00in /  0mm 1136.0 W/m2
12:31 86.7 °F /  30.4 °C 52.5 °F /  11.4 °C 29.73in /  1006.7hPa NE 8.1mph /  13km/h 8.1mph /  13km/h 31% 0.00in /  0mm 1155.0 W/m2
12:37 87.3 °F /  30.7 °C 52.9 °F /  11.6 °C 29.73in /  1006.7hPa ESE 2.9mph /  4.7km/h 6.0mph /  9.7km/h 31% 0.00in /  0mm 1172.0 W/m2
12:43 87.6 °F /  30.9 °C 51.4 °F /  10.8 °C 29.72in /  1006.3hPa ESE 2.0mph /  3.2km/h 13.0mph /  20.9km/h 29% 0.00in /  0mm 1132.0 W/m2
12:49 88.0 °F /  31.1 °C 50.7 °F /  10.4 °C 29.72in /  1006.3hPa ENE 10.1mph /  16.3km/h 10.1mph /  16.3km/h 28% 0.00in /  0mm 202.0 W/m2
12:57 87.6 °F /  30.9 °C 51.4 °F /  10.8 °C 29.72in /  1006.3hPa NNE 4.9mph /  7.9km/h 8.0mph /  12.9km/h 29% 0.00in /  0mm 1164.0 W/m2
13:03 87.6 °F /  30.9 °C 50.5 °F /  10.3 °C 29.72in /  1006.3hPa NNE 4.9mph /  7.9km/h 10.0mph /  16.1km/h 28% 0.00in /  0mm 1179.0 W/m2
13:09 88.0 °F /  31.1 °C 51.8 °F /  11 °C 29.72in /  1006.3hPa ESE 6.9mph /  11.1km/h 8.0mph /  12.9km/h 29% 0.00in /  0mm 1167.0 W/m2
13:15 88.0 °F /  31.1 °C 50.7 °F /  10.4 °C 29.72in /  1006.3hPa NNW 4.9mph /  7.9km/h 11.0mph /  17.7km/h 28% 0.00in /  0mm 1114.0 W/m2
13:21 88.3 °F /  31.3 °C 50.2 °F /  10.1 °C 29.71in /  1006hPa NE 4.9mph /  7.9km/h 9.0mph /  14.5km/h 27% 0.00in /  0mm 1113.0 W/m2
13:27 88.3 °F /  31.3 °C 51.1 °F /  10.6 °C 29.71in /  1006hPa NE 4.0mph /  6.4km/h 10.0mph /  16.1km/h 28% 0.00in /  0mm 1123.0 W/m2
13:33 88.5 °F /  31.4 °C 50.4 °F /  10.2 °C 29.71in /  1006hPa South 0.9mph /  1.4km/h 7.0mph /  11.3km/h 27% 0.00in /  0mm 1121.0 W/m2
13:39 88.3 °F /  31.3 °C 50.2 °F /  10.1 °C 29.71in /  1006hPa NE 2.0mph /  3.2km/h 7.0mph /  11.3km/h 27% 0.00in /  0mm 1088.0 W/m2
13:45 88.5 °F /  31.4 °C 50.4 °F /  10.2 °C 29.71in /  1006hPa NE 6.0mph /  9.7km/h 9.0mph /  14.5km/h 27% 0.00in /  0mm 1120.0 W/m2
13:51 89.1 °F /  31.7 °C 50.7 °F /  10.4 °C 29.70in /  1005.6hPa North 8.9mph /  14.3km/h 9.0mph /  14.5km/h 27% 0.00in /  0mm 1150.0 W/m2
13:57 89.2 °F /  31.8 °C 48.7 °F /  9.3 °C 29.70in /  1005.6hPa NE 4.0mph /  6.4km/h 9.0mph /  14.5km/h 25% 0.00in /  0mm 1111.0 W/m2
14:03 89.4 °F /  31.9 °C 48.9 °F /  9.4 °C 29.70in /  1005.6hPa East 6.9mph /  11.1km/h 12.0mph /  19.3km/h 25% 0.00in /  0mm 1127.0 W/m2
14:09 89.8 °F /  32.1 °C 50.4 °F /  10.2 °C 29.70in /  1005.6hPa ENE 2.9mph /  4.7km/h 11.0mph /  17.7km/h 26% 0.00in /  0mm 1078.0 W/m2
14:15 89.8 °F /  32.1 °C 50.4 °F /  10.2 °C 29.70in /  1005.6hPa NE 4.9mph /  7.9km/h 7.0mph /  11.3km/h 26% 0.00in /  0mm 1093.0 W/m2
14:21 89.8 °F /  32.1 °C 48.2 °F /  9 °C 29.69in /  1005.3hPa North 4.9mph /  7.9km/h 8.0mph /  12.9km/h 24% 0.00in /  0mm 1078.0 W/m2
14:27 90.0 °F /  32.2 °C 48.4 °F /  9.1 °C 29.69in /  1005.3hPa ENE 6.0mph /  9.7km/h 11.0mph /  17.7km/h 24% 0.00in /  0mm 1072.0 W/m2
14:33 90.3 °F /  32.4 °C 49.6 °F /  9.8 °C 29.69in /  1005.3hPa NNE 6.9mph /  11.1km/h 9.0mph /  14.5km/h 25% 0.00in /  0mm 1074.0 W/m2
14:39 90.7 °F /  32.6 °C 48.9 °F /  9.4 °C 29.68in /  1005hPa East 4.9mph /  7.9km/h 10.0mph /  16.1km/h 24% 0.00in /  0mm 1016.0 W/m2
14:45 90.7 °F /  32.6 °C 47.8 °F /  8.8 °C 29.68in /  1005hPa ESE 4.0mph /  6.4km/h 9.0mph /  14.5km/h 23% 0.00in /  0mm 979.0 W/m2
14:51 90.9 °F /  32.7 °C 48.0 °F /  8.9 °C 29.68in /  1005hPa NE 6.9mph /  11.1km/h 11.0mph /  17.7km/h 23% 0.00in /  0mm 1009.0 W/m2
14:57 90.1 °F /  32.3 °C 47.3 °F /  8.5 °C 29.68in /  1005hPa East 4.9mph /  7.9km/h 11.0mph /  17.7km/h 23% 0.00in /  0mm 109.0 W/m2
15:03 89.2 °F /  31.8 °C 47.7 °F /  8.7 °C 29.67in /  1004.6hPa East 4.0mph /  6.4km/h 10.0mph /  16.1km/h 24% 0.00in /  0mm 951.0 W/m2
15:09 89.2 °F /  31.8 °C 46.6 °F /  8.1 °C 29.67in /  1004.6hPa SE 6.0mph /  9.7km/h 11.0mph /  17.7km/h 23% 0.00in /  0mm 921.0 W/m2
15:15 89.8 °F /  32.1 °C 47.1 °F /  8.4 °C 29.67in /  1004.6hPa SE 6.0mph /  9.7km/h 11.0mph /  17.7km/h 23% 0.00in /  0mm 925.0 W/m2
15:21 89.8 °F /  32.1 °C 45.9 °F /  7.7 °C 29.67in /  1004.6hPa ESE 0.9mph /  1.4km/h 11.0mph /  17.7km/h 22% 0.00in /  0mm 884.0 W/m2
15:27 90.3 °F /  32.4 °C 46.4 °F /  8 °C 29.67in /  1004.6hPa ESE 6.0mph /  9.7km/h 11.0mph /  17.7km/h 22% 0.00in /  0mm 877.0 W/m2
15:33 90.7 °F /  32.6 °C 45.3 °F /  7.4 °C 29.67in /  1004.6hPa ESE 2.9mph /  4.7km/h 8.0mph /  12.9km/h 21% 0.00in /  0mm 884.0 W/m2
15:39 90.3 °F /  32.4 °C 43.9 °F /  6.6 °C 29.67in /  1004.6hPa East 8.9mph /  14.3km/h 9.0mph /  14.5km/h 20% 0.00in /  0mm 867.0 W/m2
15:45 90.3 °F /  32.4 °C 43.9 °F /  6.6 °C 29.67in /  1004.6hPa NE 6.9mph /  11.1km/h 11.0mph /  17.7km/h 20% 0.00in /  0mm 823.0 W/m2
15:51 90.5 °F /  32.5 °C 42.6 °F /  5.9 °C 29.67in /  1004.6hPa ENE 8.1mph /  13km/h 9.0mph /  14.5km/h 19% 0.00in /  0mm 807.0 W/m2
15:57 90.3 °F /  32.4 °C 42.4 °F /  5.8 °C 29.67in /  1004.6hPa NE 4.0mph /  6.4km/h 6.0mph /  9.7km/h 19% 0.00in /  0mm 775.0 W/m2
16:03 90.7 °F /  32.6 °C 41.4 °F /  5.2 °C 29.67in /  1004.6hPa North 8.1mph /  13km/h 10.0mph /  16.1km/h 18% 0.00in /  0mm 765.0 W/m2
16:09 91.0 °F /  32.8 °C 40.1 °F /  4.5 °C 29.66in /  1004.3hPa East 4.9mph /  7.9km/h 7.0mph /  11.3km/h 17% 0.00in /  0mm 744.0 W/m2
16:16 91.2 °F /  32.9 °C 38.8 °F /  3.8 °C 29.66in /  1004.3hPa NNW 2.0mph /  3.2km/h 8.0mph /  12.9km/h 16% 0.00in /  0mm 726.0 W/m2
16:22 91.6 °F /  33.1 °C 40.6 °F /  4.8 °C 29.66in /  1004.3hPa East 2.9mph /  4.7km/h 5.0mph /  8km/h 17% 0.00in /  0mm 705.0 W/m2
16:28 91.4 °F /  33 °C 41.9 °F /  5.5 °C 29.66in /  1004.3hPa East 0.9mph /  1.4km/h 8.0mph /  12.9km/h 18% 0.00in /  0mm 686.0 W/m2
16:34 91.6 °F /  33.1 °C 40.6 °F /  4.8 °C 29.66in /  1004.3hPa ENE 6.9mph /  11.1km/h 11.0mph /  17.7km/h 17% 0.00in /  0mm 668.0 W/m2
16:40 91.6 °F /  33.1 °C 40.6 °F /  4.8 °C 29.66in /  1004.3hPa ENE 0.9mph /  1.4km/h 9.0mph /  14.5km/h 17% 0.00in /  0mm 647.0 W/m2
16:46 91.8 °F /  33.2 °C 40.8 °F /  4.9 °C 29.66in /  1004.3hPa ESE 6.9mph /  11.1km/h 8.0mph /  12.9km/h 17% 0.00in /  0mm 631.0 W/m2
16:52 91.9 °F /  33.3 °C 40.8 °F /  4.9 °C 29.66in /  1004.3hPa NE 4.9mph /  7.9km/h 13.0mph /  20.9km/h 17% 0.00in /  0mm 624.0 W/m2
16:58 91.2 °F /  32.9 °C 40.3 °F /  4.6 °C 29.66in /  1004.3hPa ENE 6.9mph /  11.1km/h 11.0mph /  17.7km/h 17% 0.00in /  0mm 610.0 W/m2
17:04 90.7 °F /  32.6 °C 41.4 °F /  5.2 °C 29.66in /  1004.3hPa NE 8.1mph /  13km/h 12.0mph /  19.3km/h 18% 0.00in /  0mm 622.0 W/m2
17:10 90.0 °F /  32.2 °C 40.8 °F /  4.9 °C 29.66in /  1004.3hPa NE 2.0mph /  3.2km/h 6.0mph /  9.7km/h 18% 0.00in /  0mm 420.0 W/m2
17:16 90.1 °F /  32.3 °C 41.0 °F /  5 °C 29.66in /  1004.3hPa SE 2.9mph /  4.7km/h 5.0mph /  8km/h 18% 0.00in /  0mm 571.0 W/m2
17:23 90.7 °F /  32.6 °C 39.9 °F /  4.4 °C 29.66in /  1004.3hPa ENE 4.0mph /  6.4km/h 6.0mph /  9.7km/h 17% 0.00in /  0mm 534.0 W/m2
17:29 90.7 °F /  32.6 °C 41.4 °F /  5.2 °C 29.66in /  1004.3hPa East 4.0mph /  6.4km/h 8.0mph /  12.9km/h 18% 0.00in /  0mm 482.0 W/m2
17:35 90.1 °F /  32.3 °C 41.0 °F /  5 °C 29.66in /  1004.3hPa SSW 2.9mph /  4.7km/h 10.0mph /  16.1km/h 18% 0.00in /  0mm 90.0 W/m2
17:41 89.2 °F /  31.8 °C 41.5 °F /  5.3 °C 29.66in /  1004.3hPa North 2.9mph /  4.7km/h 6.0mph /  9.7km/h 19% 0.00in /  0mm 199.0 W/m2
17:47 88.9 °F /  31.6 °C 41.4 °F /  5.2 °C 29.66in /  1004.3hPa North 14.1mph /  22.7km/h 14.1mph /  22.7km/h 19% 0.00in /  0mm 422.0 W/m2
17:53 88.9 °F /  31.6 °C 43.9 °F /  6.6 °C 29.66in /  1004.3hPa NE 4.9mph /  7.9km/h 11.0mph /  17.7km/h 21% 0.00in /  0mm 316.0 W/m2
17:59 88.5 °F /  31.4 °C 44.8 °F /  7.1 °C 29.66in /  1004.3hPa ENE 0.9mph /  1.4km/h 5.0mph /  8km/h 22% 0.00in /  0mm 120.0 W/m2
18:05 88.3 °F /  31.3 °C 43.5 °F /  6.4 °C 29.66in /  1004.3hPa ENE 4.0mph /  6.4km/h 6.0mph /  9.7km/h 21% 0.00in /  0mm 97.0 W/m2
18:11 88.0 °F /  31.1 °C 43.2 °F /  6.2 °C 29.66in /  1004.3hPa NNE 2.0mph /  3.2km/h 8.0mph /  12.9km/h 21% 0.00in /  0mm 113.0 W/m2
18:17 87.3 °F /  30.7 °C 43.7 °F /  6.5 °C 29.66in /  1004.3hPa ENE 4.0mph /  6.4km/h 5.0mph /  8km/h 22% 0.00in /  0mm 86.0 W/m2
18:23 86.7 °F /  30.4 °C 43.3 °F /  6.3 °C 29.66in /  1004.3hPa NNE 2.9mph /  4.7km/h 4.0mph /  6.4km/h 22% 0.00in /  0mm 76.0 W/m2
18:29 86.2 °F /  30.1 °C 42.8 °F /  6 °C 29.66in /  1004.3hPa NE 0.9mph /  1.4km/h 7.0mph /  11.3km/h 22% 0.00in /  0mm 42.0 W/m2
18:35 85.6 °F /  29.8 °C 43.5 °F /  6.4 °C 29.66in /  1004.3hPa East 0.9mph /  1.4km/h 4.0mph /  6.4km/h 23% 0.00in /  0mm 44.0 W/m2
18:42 85.5 °F /  29.7 °C 43.5 °F /  6.4 °C 29.66in /  1004.3hPa NE 2.0mph /  3.2km/h 6.0mph /  9.7km/h 23% 0.00in /  0mm 160.0 W/m2
18:48 85.3 °F /  29.6 °C 44.4 °F /  6.9 °C 29.66in /  1004.3hPa ESE 2.9mph /  4.7km/h 5.0mph /  8km/h 24% 0.00in /  0mm 121.0 W/m2
18:54 85.3 °F /  29.6 °C 44.4 °F /  6.9 °C 29.67in /  1004.6hPa SE 2.0mph /  3.2km/h 8.0mph /  12.9km/h 24% 0.00in /  0mm 54.0 W/m2
19:00 85.3 °F /  29.6 °C 44.4 °F /  6.9 °C 29.67in /  1004.6hPa NNW 2.9mph /  4.7km/h 9.0mph /  14.5km/h 24% 0.00in /  0mm 39.0 W/m2
19:06 84.9 °F /  29.4 °C 45.1 °F /  7.3 °C 29.66in /  1004.3hPa SSE 2.9mph /  4.7km/h 6.0mph /  9.7km/h 25% 0.00in /  0mm 18.0 W/m2
19:12 84.6 °F /  29.2 °C 43.9 °F /  6.6 °C 29.66in /  1004.3hPa East 2.9mph /  4.7km/h 6.0mph /  9.7km/h 24% 0.00in /  0mm 14.0 W/m2
19:19 84.0 °F /  28.9 °C 44.4 °F /  6.9 °C 29.67in /  1004.6hPa Calm   5.0mph /  8km/h 25% 0.00in /  0mm 11.0 W/m2
19:25 83.7 °F /  28.7 °C 45.1 °F /  7.3 °C 29.67in /  1004.6hPa Calm   4.0mph /  6.4km/h 26% 0.00in /  0mm 7.0 W/m2
19:31 83.5 °F /  28.6 °C 45.0 °F /  7.2 °C 29.67in /  1004.6hPa ESE 0.9mph /  1.4km/h 6.0mph /  9.7km/h 26% 0.00in /  0mm 5.0 W/m2
19:37 82.9 °F /  28.3 °C 44.6 °F /  7 °C 29.67in /  1004.6hPa Calm   4.0mph /  6.4km/h 26% 0.00in /  0mm 0.0 W/m2
19:43 82.6 °F /  28.1 °C 44.2 °F /  6.8 °C 29.67in /  1004.6hPa Calm   7.0mph /  11.3km/h 26% 0.00in /  0mm 0.0 W/m2
19:49 82.0 °F /  27.8 °C 44.8 °F /  7.1 °C 29.68in /  1005hPa ESE 0.9mph /  1.4km/h 3.0mph /  4.8km/h 27% 0.00in /  0mm 0.0 W/m2
19:55 81.7 °F /  27.6 °C 45.3 °F /  7.4 °C 29.68in /  1005hPa ESE 0.9mph /  1.4km/h 4.0mph /  6.4km/h 28% 0.00in /  0mm 0.0 W/m2
20:01 81.3 °F /  27.4 °C 45.1 °F /  7.3 °C 29.68in /  1005hPa SE 2.0mph /  3.2km/h 3.0mph /  4.8km/h 28% 0.00in /  0mm 0.0 W/m2
20:07 81.0 °F /  27.2 °C 45.7 °F /  7.6 °C 29.68in /  1005hPa SE 2.9mph /  4.7km/h 4.0mph /  6.4km/h 29% 0.00in /  0mm 0.0 W/m2
20:13 80.8 °F /  27.1 °C 45.5 °F /  7.5 °C 29.69in /  1005.3hPa SE 2.0mph /  3.2km/h 5.0mph /  8km/h 29% 0.00in /  0mm 0.0 W/m2
20:19 80.2 °F /  26.8 °C 50.2 °F /  10.1 °C 29.69in /  1005.3hPa SE 8.1mph /  13km/h 10.0mph /  16.1km/h 35% 0.00in /  0mm 0.0 W/m2
20:25 79.5 °F /  26.4 °C 50.9 °F /  10.5 °C 29.70in /  1005.6hPa South 6.0mph /  9.7km/h 9.0mph /  14.5km/h 37% 0.00in /  0mm 0.0 W/m2
20:32 78.6 °F /  25.9 °C 50.9 °F /  10.5 °C 29.70in /  1005.6hPa SSE 8.1mph /  13km/h 8.1mph /  13km/h 38% 0.00in /  0mm 0.0 W/m2
20:38 77.9 °F /  25.5 °C 50.9 °F /  10.5 °C 29.70in /  1005.6hPa SE 2.9mph /  4.7km/h 8.0mph /  12.9km/h 39% 0.00in /  0mm 0.0 W/m2
20:44 77.4 °F /  25.2 °C 51.1 °F /  10.6 °C 29.70in /  1005.6hPa SE 2.9mph /  4.7km/h 6.0mph /  9.7km/h 40% 0.00in /  0mm 0.0 W/m2
20:50 76.8 °F /  24.9 °C 51.3 °F /  10.7 °C 29.71in /  1006hPa SSE 4.9mph /  7.9km/h 12.0mph /  19.3km/h 41% 0.00in /  0mm 0.0 W/m2
20:56 76.3 °F /  24.6 °C 50.9 °F /  10.5 °C 29.71in /  1006hPa ESE 6.0mph /  9.7km/h 10.0mph /  16.1km/h 41% 0.00in /  0mm 0.0 W/m2
21:02 75.7 °F /  24.3 °C 51.1 °F /  10.6 °C 29.72in /  1006.3hPa ESE 8.1mph /  13km/h 12.0mph /  19.3km/h 42% 0.00in /  0mm 0.0 W/m2
21:09 75.4 °F /  24.1 °C 51.3 °F /  10.7 °C 29.72in /  1006.3hPa SE 6.0mph /  9.7km/h 10.0mph /  16.1km/h 43% 0.00in /  0mm 0.0 W/m2
21:15 75.0 °F /  23.9 °C 51.1 °F /  10.6 °C 29.72in /  1006.3hPa SSE 6.9mph /  11.1km/h 9.0mph /  14.5km/h 43% 0.00in /  0mm 0.0 W/m2
21:21 74.7 °F /  23.7 °C 51.3 °F /  10.7 °C 29.72in /  1006.3hPa SE 4.9mph /  7.9km/h 8.0mph /  12.9km/h 44% 0.00in /  0mm 0.0 W/m2
21:27 74.5 °F /  23.6 °C 51.1 °F /  10.6 °C 29.72in /  1006.3hPa SSE 8.9mph /  14.3km/h 10.0mph /  16.1km/h 44% 0.00in /  0mm 0.0 W/m2
21:33 74.3 °F /  23.5 °C 50.9 °F /  10.5 °C 29.72in /  1006.3hPa SSW 6.9mph /  11.1km/h 7.0mph /  11.3km/h 44% 0.00in /  0mm 0.0 W/m2
21:39 74.1 °F /  23.4 °C 51.4 °F /  10.8 °C 29.72in /  1006.3hPa SSE 4.0mph /  6.4km/h 9.0mph /  14.5km/h 45% 0.00in /  0mm 0.0 W/m2
21:45 73.9 °F /  23.3 °C 51.3 °F /  10.7 °C 29.72in /  1006.3hPa SSE 8.1mph /  13km/h 11.0mph /  17.7km/h 45% 0.00in /  0mm 0.0 W/m2
21:51 73.8 °F /  23.2 °C 51.1 °F /  10.6 °C 29.73in /  1006.7hPa SSE 6.0mph /  9.7km/h 11.0mph /  17.7km/h 45% 0.00in /  0mm 0.0 W/m2
21:57 73.6 °F /  23.1 °C 50.9 °F /  10.5 °C 29.73in /  1006.7hPa SE 4.0mph /  6.4km/h 12.0mph /  19.3km/h 45% 0.00in /  0mm 0.0 W/m2
22:03 73.6 °F /  23.1 °C 50.9 °F /  10.5 °C 29.72in /  1006.3hPa SSW 0.9mph /  1.4km/h 5.0mph /  8km/h 45% 0.00in /  0mm 0.0 W/m2
22:10 73.6 °F /  23.1 °C 50.9 °F /  10.5 °C 29.73in /  1006.7hPa SSW 6.9mph /  11.1km/h 8.0mph /  12.9km/h 45% 0.00in /  0mm 0.0 W/m2
22:16 73.4 °F /  23 °C 50.2 °F /  10.1 °C 29.73in /  1006.7hPa South 8.9mph /  14.3km/h 9.0mph /  14.5km/h 44% 0.00in /  0mm 0.0 W/m2
22:22 73.4 °F /  23 °C 50.2 °F /  10.1 °C 29.73in /  1006.7hPa SSE 4.0mph /  6.4km/h 10.0mph /  16.1km/h 44% 0.00in /  0mm 0.0 W/m2
22:28 73.4 °F /  23 °C 50.2 °F /  10.1 °C 29.73in /  1006.7hPa Calm   12.0mph /  19.3km/h 44% 0.00in /  0mm 0.0 W/m2
22:34 73.4 °F /  23 °C 50.2 °F /  10.1 °C 29.74in /  1007hPa SSE 2.9mph /  4.7km/h 10.0mph /  16.1km/h 44% 0.00in /  0mm 0.0 W/m2
22:40 73.4 °F /  23 °C 50.2 °F /  10.1 °C 29.74in /  1007hPa SE 8.1mph /  13km/h 9.0mph /  14.5km/h 44% 0.00in /  0mm 0.0 W/m2
22:46 73.2 °F /  22.9 °C 50.0 °F /  10 °C 29.74in /  1007hPa SE 11.0mph /  17.7km/h 12.0mph /  19.3km/h 44% 0.00in /  0mm 0.0 W/m2
22:53 73.2 °F /  22.9 °C 50.5 °F /  10.3 °C 29.75in /  1007.3hPa South 6.0mph /  9.7km/h 10.0mph /  16.1km/h 45% 0.00in /  0mm 0.0 W/m2
22:59 73.2 °F /  22.9 °C 50.5 °F /  10.3 °C 29.75in /  1007.3hPa South 4.9mph /  7.9km/h 13.0mph /  20.9km/h 45% 0.00in /  0mm 0.0 W/m2
23:05 73.0 °F /  22.8 °C 50.4 °F /  10.2 °C 29.75in /  1007.3hPa South 2.9mph /  4.7km/h 4.0mph /  6.4km/h 45% 0.00in /  0mm 0.0 W/m2
23:11 73.0 °F /  22.8 °C 50.4 °F /  10.2 °C 29.75in /  1007.3hPa Calm   8.0mph /  12.9km/h 45% 0.00in /  0mm 0.0 W/m2
23:17 72.9 °F /  22.7 °C 50.9 °F /  10.5 °C 29.75in /  1007.3hPa SE 4.9mph /  7.9km/h 7.0mph /  11.3km/h 46% 0.00in /  0mm 0.0 W/m2
23:23 72.7 °F /  22.6 °C 50.7 °F /  10.4 °C 29.75in /  1007.3hPa South 2.0mph /  3.2km/h 5.0mph /  8km/h 46% 0.00in /  0mm 0.0 W/m2
23:30 72.7 °F /  22.6 °C 50.7 °F /  10.4 °C 29.75in /  1007.3hPa SE 2.9mph /  4.7km/h 5.0mph /  8km/h 46% 0.00in /  0mm 0.0 W/m2
23:36 72.7 °F /  22.6 °C 50.7 °F /  10.4 °C 29.75in /  1007.3hPa SSW 6.0mph /  9.7km/h 11.0mph /  17.7km/h 46% 0.00in /  0mm 0.0 W/m2
23:42 72.7 °F /  22.6 °C 50.7 °F /  10.4 °C 29.75in /  1007.3hPa SE 6.9mph /  11.1km/h 9.0mph /  14.5km/h 46% 0.00in /  0mm 0.0 W/m2
23:48 72.7 °F /  22.6 °C 51.3 °F /  10.7 °C 29.75in /  1007.3hPa SSE 2.9mph /  4.7km/h 8.0mph /  12.9km/h 47% 0.00in /  0mm 0.0 W/m2
23:54 72.7 °F /  22.6 °C 51.3 °F /  10.7 °C 29.75in /  1007.3hPa SE 2.0mph /  3.2km/h 8.0mph /  12.9km/h 47% 0.00in /  0mm 0.0 W/m2
Olympia, Windhoek, Namibia
Compliments of Weather Underground - 3 mb